地図

経路データ

SID SEASON NUMBER BASIN SUBBASIN NAME ISO_TIME NATURE LAT LON WMO_WIND WMO_PRES WMO_AGENCY TRACK_TYPE DIST2LAND LANDFALL IFLAG USA_AGENCY USA_ATCF_ID USA_LAT USA_LON USA_RECORD USA_STATUS USA_WIND USA_PRES USA_SSHS USA_R34_NE USA_R34_SE USA_R34_SW USA_R34_NW USA_R50_NE USA_R50_SE USA_R50_SW USA_R50_NW USA_R64_NE USA_R64_SE USA_R64_SW USA_R64_NW USA_POCI USA_ROCI USA_RMW USA_EYE TOKYO_LAT TOKYO_LON TOKYO_GRADE TOKYO_WIND TOKYO_PRES TOKYO_R50_DIR TOKYO_R50_LONG TOKYO_R50_SHORT TOKYO_R30_DIR TOKYO_R30_LONG TOKYO_R30_SHORT TOKYO_LAND CMA_LAT CMA_LON CMA_CAT CMA_WIND CMA_PRES HKO_LAT HKO_LON HKO_CAT HKO_WIND HKO_PRES NEWDELHI_LAT NEWDELHI_LON NEWDELHI_GRADE NEWDELHI_WIND NEWDELHI_PRES NEWDELHI_CI NEWDELHI_DP NEWDELHI_POCI REUNION_LAT REUNION_LON REUNION_TYPE REUNION_WIND REUNION_PRES REUNION_TNUM REUNION_CI REUNION_RMW REUNION_R34_NE REUNION_R34_SE REUNION_R34_SW REUNION_R34_NW REUNION_R50_NE REUNION_R50_SE REUNION_R50_SW REUNION_R50_NW REUNION_R64_NE REUNION_R64_SE REUNION_R64_SW REUNION_R64_NW BOM_LAT BOM_LON BOM_TYPE BOM_WIND BOM_PRES BOM_TNUM BOM_CI BOM_RMW BOM_R34_NE BOM_R34_SE BOM_R34_SW BOM_R34_NW BOM_R50_NE BOM_R50_SE BOM_R50_SW BOM_R50_NW BOM_R64_NE BOM_R64_SE BOM_R64_SW BOM_R64_NW BOM_ROCI BOM_POCI BOM_EYE BOM_POS_METHOD BOM_PRES_METHOD NADI_LAT NADI_LON NADI_CAT NADI_WIND NADI_PRES WELLINGTON_LAT WELLINGTON_LON WELLINGTON_WIND WELLINGTON_PRES DS824_LAT DS824_LON DS824_STAGE DS824_WIND DS824_PRES TD9636_LAT TD9636_LON TD9636_STAGE TD9636_WIND TD9636_PRES TD9635_LAT TD9635_LON TD9635_WIND TD9635_PRES TD9635_ROCI NEUMANN_LAT NEUMANN_LON NEUMANN_CLASS NEUMANN_WIND NEUMANN_PRES MLC_LAT MLC_LON MLC_CLASS MLC_WIND MLC_PRES USA_GUST BOM_GUST BOM_GUST_PER REUNION_GUST REUNION_GUST_PER USA_SEAHGT USA_SEARAD_NE USA_SEARAD_SE USA_SEARAD_SW USA_SEARAD_NW STORM_SPEED STORM_DIR
1991220N13258 1991 48 EP MM HILDA 1991-08-08 00:00:00 TS 13.3000 -101.900 25 1009 hurdat_epa main 448 448 O_____________ hurdat_epa EP091991 13.3000 -101.900 TD 25 1009 -1 12 269
1991220N13258 1991 48 EP MM HILDA 1991-08-08 03:00:00 TS 13.2852 -102.495 main 472 472 P_____________ EP091991 13.2852 -102.495 TD 25 1009 -1 12 270
1991220N13258 1991 48 EP MM HILDA 1991-08-08 06:00:00 TS 13.3000 -103.100 25 1009 hurdat_epa main 496 496 O_____________ hurdat_epa EP091991 13.3000 -103.100 TD 25 1009 -1 12 274
1991220N13258 1991 48 EP MM HILDA 1991-08-08 09:00:00 TS 13.3700 -103.715 main 518 518 P_____________ EP091991 13.3700 -103.715 TD 27 1009 -1 12 280
1991220N13258 1991 48 EP MM HILDA 1991-08-08 12:00:00 TS 13.5000 -104.300 30 1009 hurdat_epa main 535 531 O_____________ hurdat_epa EP091991 13.5000 -104.300 TD 30 1009 -1 11 286
1991220N13258 1991 48 EP MM HILDA 1991-08-08 15:00:00 TS 13.6774 -104.830 main 531 524 P_____________ EP091991 13.6774 -104.830 TD 30 1008 -1 11 292
1991220N13258 1991 48 EP MM HILDA 1991-08-08 18:00:00 TS 13.9000 -105.300 30 1008 hurdat_epa main 528 520 O_____________ hurdat_epa EP091991 13.9000 -105.300 TD 30 1008 -1 10 299
1991220N13258 1991 48 EP MM HILDA 1991-08-08 21:00:00 TS 14.1574 -105.715 main 515 511 P_____________ EP091991 14.1574 -105.715 TD 30 1007 -1 9 303
1991220N13258 1991 48 EP MM HILDA 1991-08-09 00:00:00 TS 14.4000 -106.100 30 1007 hurdat_epa main 517 513 O_____________ hurdat_epa EP091991 14.4000 -106.100 TD 30 1007 -1 9 298
1991220N13258 1991 48 EP MM HILDA 1991-08-09 03:00:00 TS 14.5574 -106.493 main 523 523 P_____________ EP091991 14.5574 -106.493 TD 30 1006 -1 8 291
1991220N13258 1991 48 EP MM HILDA 1991-08-09 06:00:00 TS 14.7000 -106.900 30 1006 hurdat_epa main 541 540 O_____________ hurdat_epa EP091991 14.7000 -106.900 TD 30 1006 -1 9 292
1991220N13258 1991 48 EP MM HILDA 1991-08-09 09:00:00 TS 14.8849 -107.328 main 549 549 P_____________ EP091991 14.8849 -107.328 TD 32 1005 -1 10 295
1991220N13258 1991 48 EP MM HILDA 1991-08-09 12:00:00 TS 15.1000 -107.800 35 1005 hurdat_epa main 558 555 O_____________ hurdat_epa EP091991 15.1000 -107.800 TS 35 1005 0 11 295
1991220N13258 1991 48 EP MM HILDA 1991-08-09 15:00:00 TS 15.3351 -108.350 main 580 571 P_____________ EP091991 15.3351 -108.350 TS 37 1004 0 12 295
1991220N13258 1991 48 EP MM HILDA 1991-08-09 18:00:00 TS 15.6000 -108.900 40 1004 hurdat_epa main 592 592 O_____________ hurdat_epa EP091991 15.6000 -108.900 TS 40 1004 0 11 300
1991220N13258 1991 48 EP MM HILDA 1991-08-09 21:00:00 TS 15.8998 -109.365 main 607 599 P_____________ EP091991 15.8998 -109.365 TS 42 1003 0 11 305
1991220N13258 1991 48 EP MM HILDA 1991-08-10 00:00:00 TS 16.2000 -109.800 45 1003 hurdat_epa main 616 616 O_____________ hurdat_epa EP091991 16.2000 -109.800 TS 45 1003 0 10 303
1991220N13258 1991 48 EP MM HILDA 1991-08-10 03:00:00 TS 16.4499 -110.243 main 636 636 P_____________ EP091991 16.4499 -110.243 TS 45 1001 0 10 300
1991220N13258 1991 48 EP MM HILDA 1991-08-10 06:00:00 TS 16.7000 -110.700 45 1000 hurdat_epa main 661 661 O_____________ hurdat_epa EP091991 16.7000 -110.700 TS 45 1000 0 11 300
1991220N13258 1991 48 EP MM HILDA 1991-08-10 09:00:00 TS 16.9774 -111.193 main 671 648 P_____________ EP091991 16.9774 -111.193 TS 47 998 0 11 302
1991220N13258 1991 48 EP MM HILDA 1991-08-10 12:00:00 TS 17.3000 -111.700 50 997 hurdat_epa main 650 625 O_____________ hurdat_epa EP091991 17.3000 -111.700 TS 50 997 0 12 306
1991220N13258 1991 48 EP MM HILDA 1991-08-10 15:00:00 TS 17.6775 -112.215 main 625 601 P_____________ EP091991 17.6775 -112.215 TS 50 996 0 12 310
1991220N13258 1991 48 EP MM HILDA 1991-08-10 18:00:00 TS 18.1000 -112.700 50 995 hurdat_epa main 605 582 O_____________ hurdat_epa EP091991 18.1000 -112.700 TS 50 995 0 12 315
1991220N13258 1991 48 EP MM HILDA 1991-08-10 21:00:00 TS 18.5348 -113.115 main 588 567 P_____________ EP091991 18.5348 -113.115 TS 52 994 0 12 320
1991220N13258 1991 48 EP MM HILDA 1991-08-11 00:00:00 TS 19.0000 -113.500 55 993 hurdat_epa main 567 554 O_____________ hurdat_epa EP091991 19.0000 -113.500 TS 55 993 0 12 321
1991220N13258 1991 48 EP MM HILDA 1991-08-11 03:00:00 TS 19.4925 -113.922 main 554 549 P_____________ EP091991 19.4926 -113.945 TS 55 992 0 13 323
1991220N13258 1991 48 EP MM HILDA 1991-08-11 06:00:00 TS 20.0000 -114.300 55 992 hurdat_epa main 550 526 O_____________ hurdat_epa EP091991 20.0000 -114.300 TS 55 992 0 11 333
1991220N13258 1991 48 EP MM HILDA 1991-08-11 09:00:00 TS 20.4991 -114.469 main 526 497 P_____________ EP091991 20.4987 -114.297 TS 52 993 0 11 335
1991220N13258 1991 48 EP MM HILDA 1991-08-11 12:00:00 TS 21.0000 -114.800 50 995 hurdat_epa main 497 491 O_____________ hurdat_epa EP091991 21.0000 -114.500 TS 50 995 0 15 311
1991220N13258 1991 48 EP MM HILDA 1991-08-11 15:00:00 TS 21.5017 -115.697 main 513 512 P_____________ EP091991 21.5026 -115.523 TS 47 997 0 20 299
1991220N13258 1991 48 EP MM HILDA 1991-08-11 18:00:00 TS 22.0000 -116.700 45 1000 hurdat_epa main 555 555 O_____________ hurdat_epa EP091991 22.0000 -116.700 TS 45 1000 0 18 302
1991220N13258 1991 48 EP MM HILDA 1991-08-11 21:00:00 TS 22.4917 -117.376 main 588 586 P_____________ EP091991 22.4914 -117.398 TS 45 1001 0 15 312
1991220N13258 1991 48 EP MM HILDA 1991-08-12 00:00:00 TS 23.0000 -117.900 45 1003 hurdat_epa main 586 569 O_____________ hurdat_epa EP091991 23.0000 -117.900 TS 45 1003 0 14 318
1991220N13258 1991 48 EP MM HILDA 1991-08-12 03:00:00 TS 23.5347 -118.381 main 576 553 P_____________ EP091991 23.5347 -118.381 TS 45 1004 0 14 323
1991220N13258 1991 48 EP MM HILDA 1991-08-12 06:00:00 TS 24.1000 -118.800 45 1005 hurdat_epa main 553 535 O_____________ hurdat_epa EP091991 24.1000 -118.800 TS 45 1005 0 14 326
1991220N13258 1991 48 EP MM HILDA 1991-08-12 09:00:00 TS 24.6925 -119.230 main 536 527 P_____________ EP091991 24.6925 -119.230 TS 45 1005 0 14 329
1991220N13258 1991 48 EP MM HILDA 1991-08-12 12:00:00 TS 25.3000 -119.600 45 1006 hurdat_epa main 530 521 O_____________ hurdat_epa EP091991 25.3000 -119.600 TS 45 1006 0 13 334
1991220N13258 1991 48 EP MM HILDA 1991-08-12 15:00:00 TS 25.8998 -119.880 main 525 517 P_____________ EP091991 25.8998 -119.880 TS 42 1007 0 13 339
1991220N13258 1991 48 EP MM HILDA 1991-08-12 18:00:00 TS 26.5000 -120.100 40 1008 hurdat_epa main 521 518 O_____________ hurdat_epa EP091991 26.5000 -120.100 TS 40 1008 0 13 342
1991220N13258 1991 48 EP MM HILDA 1991-08-12 21:00:00 TS 27.1074 -120.308 main 526 519 P_____________ EP091991 27.1074 -120.308 TS 37 1008 0 13 343
1991220N13258 1991 48 EP MM HILDA 1991-08-13 00:00:00 TS 27.7000 -120.500 35 1009 hurdat_epa main 519 507 O_____________ hurdat_epa EP091991 27.7000 -120.500 TS 35 1009 0 12 343
1991220N13258 1991 48 EP MM HILDA 1991-08-13 03:00:00 TS 28.2574 -120.693 main 507 503 P_____________ EP091991 28.2574 -120.693 TS 32 1009 -1 12 342
1991220N13258 1991 48 EP MM HILDA 1991-08-13 06:00:00 TS 28.8000 -120.900 30 1009 hurdat_epa main 505 493 O_____________ hurdat_epa EP091991 28.8000 -120.900 TD 30 1009 -1 12 340
1991220N13258 1991 48 EP MM HILDA 1991-08-13 09:00:00 TS 29.3575 -121.150 main 487 482 P_____________ EP091991 29.3575 -121.150 TD 27 1009 -1 12 338
1991220N13258 1991 48 EP MM HILDA 1991-08-13 12:00:00 TS 29.9000 -121.400 25 1010 hurdat_epa main 486 457 O_____________ hurdat_epa EP091991 29.9000 -121.400 TD 25 1010 -1 11 338
1991220N13258 1991 48 EP MM HILDA 1991-08-13 15:00:00 TS 30.4150 -121.645 main 457 408 P_____________ EP091991 30.4150 -121.645 TD 25 1010 -1 11 341
1991220N13258 1991 48 EP MM HILDA 1991-08-13 18:00:00 TS 30.9000 -121.800 25 1010 hurdat_epa main 408 366 O_____________ hurdat_epa EP091991 30.9000 -121.800 TD 25 1010 -1 10 353
1991220N13258 1991 48 EP MM HILDA 1991-08-13 21:00:00 TS 31.3575 -121.788 main 355 310 P_____________ EP091991 31.3575 -121.788 TD 25 1010 -1 9 5
1991220N13258 1991 48 EP MM HILDA 1991-08-14 00:00:00 TS 31.8000 -121.700 25 1010 hurdat_epa main 310 265 O_____________ hurdat_epa EP091991 31.8000 -121.700 TD 25 1010 -1 9 8
1991220N13258 1991 48 EP MM HILDA 1991-08-14 03:00:00 TS 32.2475 -121.637 main 265 215 P_____________ EP091991 32.2475 -121.637 TD 25 1010 -1 9 5
1991220N13258 1991 48 EP MM HILDA 1991-08-14 06:00:00 TS 32.7000 -121.600 25 1010 hurdat_epa main 215 O_____________ hurdat_epa EP091991 32.7000 -121.600 TD 25 1010 -1 9 5

IBTrACS Databaseについて

本データベースは、米国NOAAが公開する1842年以降の世界の熱帯低気圧のベストトラックデータアーカイブInternational Best Track Archive for Climate Stewardship (IBTrACS)を、ウェブで閲覧しやすい形式に変換したものです。

最終更新日:2021-12-08